sensor_id;sensor_type;location;lat;lon;timestamp;P1;durP1;ratioP1;P2;durP2;ratioP2
13335;SDS011;6737;51.480;11.962;2022-08-11T00:00:05;2.63;;;1.90;;
13335;SDS011;6737;51.480;11.962;2022-08-11T00:02:34;3.60;;;1.90;;
13335;SDS011;6737;51.480;11.962;2022-08-11T00:05:06;3.22;;;1.90;;
13335;SDS011;6737;51.480;11.962;2022-08-11T00:07:43;3.30;;;2.00;;
13335;SDS011;6737;51.480;11.962;2022-08-11T00:10:15;3.23;;;2.17;;
13335;SDS011;6737;51.480;11.962;2022-08-11T00:12:53;4.75;;;2.00;;
13335;SDS011;6737;51.480;11.962;2022-08-11T00:15:21;3.78;;;2.10;;
13335;SDS011;6737;51.480;11.962;2022-08-11T00:17:49;4.22;;;1.90;;
13335;SDS011;6737;51.480;11.962;2022-08-11T00:20:29;5.10;;;1.70;;
13335;SDS011;6737;51.480;11.962;2022-08-11T00:23:05;2.63;;;1.63;;
13335;SDS011;6737;51.480;11.962;2022-08-11T00:25:54;5.03;;;2.10;;
13335;SDS011;6737;51.480;11.962;2022-08-11T00:28:28;3.63;;;1.85;;
13335;SDS011;6737;51.480;11.962;2022-08-11T00:30:57;4.70;;;2.00;;
13335;SDS011;6737;51.480;11.962;2022-08-11T00:33:31;4.07;;;2.63;;
13335;SDS011;6737;51.480;11.962;2022-08-11T00:36:01;3.40;;;2.20;;
13335;SDS011;6737;51.480;11.962;2022-08-11T00:38:29;3.90;;;2.05;;
13335;SDS011;6737;51.480;11.962;2022-08-11T00:46:34;3.72;;;2.50;;
13335;SDS011;6737;51.480;11.962;2022-08-11T01:01:56;4.82;;;1.85;;
13335;SDS011;6737;51.480;11.962;2022-08-11T01:04:28;4.20;;;2.15;;
13335;SDS011;6737;51.480;11.962;2022-08-11T01:13:14;3.65;;;2.20;;
13335;SDS011;6737;51.480;11.962;2022-08-11T01:38:59;2.50;;;2.15;;
13335;SDS011;6737;51.480;11.962;2022-08-11T01:41:53;6.00;;;2.40;;
13335;SDS011;6737;51.480;11.962;2022-08-11T01:47:54;5.38;;;2.50;;
13335;SDS011;6737;51.480;11.962;2022-08-11T01:59:40;5.15;;;2.50;;
13335;SDS011;6737;51.480;11.962;2022-08-11T02:02:17;4.70;;;2.40;;
13335;SDS011;6737;51.480;11.962;2022-08-11T02:05:13;3.67;;;2.30;;
13335;SDS011;6737;51.480;11.962;2022-08-11T02:07:51;4.57;;;2.58;;
13335;SDS011;6737;51.480;11.962;2022-08-11T02:10:35;5.83;;;2.60;;
13335;SDS011;6737;51.480;11.962;2022-08-11T02:19:41;5.35;;;2.78;;
13335;SDS011;6737;51.480;11.962;2022-08-11T02:22:22;3.53;;;2.70;;
13335;SDS011;6737;51.480;11.962;2022-08-11T02:25:23;2.90;;;2.57;;
13335;SDS011;6737;51.480;11.962;2022-08-11T02:28:23;5.40;;;2.90;;
13335;SDS011;6737;51.480;11.962;2022-08-11T02:31:14;5.43;;;2.60;;
13335;SDS011;6737;51.480;11.962;2022-08-11T02:34:16;3.73;;;2.63;;
13335;SDS011;6737;51.480;11.962;2022-08-11T02:36:55;3.93;;;2.80;;
13335;SDS011;6737;51.480;11.962;2022-08-11T02:50:41;3.90;;;2.60;;
13335;SDS011;6737;51.480;11.962;2022-08-11T02:53:30;4.47;;;2.87;;
13335;SDS011;6737;51.480;11.962;2022-08-11T03:02:39;4.00;;;2.70;;
13335;SDS011;6737;51.480;11.962;2022-08-11T03:13:00;6.57;;;2.40;;
13335;SDS011;6737;51.480;11.962;2022-08-11T03:16:15;5.07;;;2.33;;
13335;SDS011;6737;51.480;11.962;2022-08-11T03:21:50;3.60;;;2.10;;
13335;SDS011;6737;51.480;11.962;2022-08-11T03:27:30;4.03;;;2.30;;
13335;SDS011;6737;51.480;11.962;2022-08-11T03:32:50;3.03;;;2.20;;
13335;SDS011;6737;51.480;11.962;2022-08-11T03:35:53;4.23;;;1.93;;
13335;SDS011;6737;51.480;11.962;2022-08-11T03:50:00;3.33;;;2.20;;
13335;SDS011;6737;51.480;11.962;2022-08-11T04:28:35;4.90;;;2.27;;
13335;SDS011;6737;51.480;11.962;2022-08-11T04:58:11;4.32;;;2.42;;
13335;SDS011;6737;51.480;11.962;2022-08-11T05:04:12;4.10;;;2.20;;
13335;SDS011;6737;51.480;11.962;2022-08-11T05:07:41;4.33;;;2.23;;
13335;SDS011;6737;51.480;11.962;2022-08-11T05:13:27;5.90;;;2.50;;
13335;SDS011;6737;51.480;11.962;2022-08-11T05:16:16;5.63;;;2.50;;
13335;SDS011;6737;51.480;11.962;2022-08-11T05:19:04;5.28;;;2.25;;
13335;SDS011;6737;51.480;11.962;2022-08-11T05:21:53;5.33;;;2.20;;
13335;SDS011;6737;51.480;11.962;2022-08-11T05:24:47;7.67;;;2.10;;
13335;SDS011;6737;51.480;11.962;2022-08-11T05:28:02;5.87;;;2.27;;
13335;SDS011;6737;51.480;11.962;2022-08-11T05:31:10;6.35;;;2.30;;
13335;SDS011;6737;51.480;11.962;2022-08-11T05:33:58;6.03;;;2.10;;
13335;SDS011;6737;51.480;11.962;2022-08-11T05:36:52;7.00;;;2.30;;
13335;SDS011;6737;51.480;11.962;2022-08-11T05:39:25;4.75;;;2.40;;
13335;SDS011;6737;51.480;11.962;2022-08-11T05:42:15;4.67;;;2.47;;
13335;SDS011;6737;51.480;11.962;2022-08-11T05:45:08;5.20;;;2.30;;
13335;SDS011;6737;51.480;11.962;2022-08-11T05:48:02;4.40;;;2.40;;
13335;SDS011;6737;51.480;11.962;2022-08-11T05:50:56;5.95;;;2.50;;
13335;SDS011;6737;51.480;11.962;2022-08-11T05:53:43;9.47;;;2.53;;
13335;SDS011;6737;51.480;11.962;2022-08-11T05:56:30;4.45;;;2.50;;
13335;SDS011;6737;51.480;11.962;2022-08-11T05:58:58;6.82;;;2.50;;
13335;SDS011;6737;51.480;11.962;2022-08-11T06:01:26;5.00;;;2.30;;
13335;SDS011;6737;51.480;11.962;2022-08-11T06:03:57;4.75;;;2.50;;
13335;SDS011;6737;51.480;11.962;2022-08-11T06:06:40;6.13;;;2.55;;
13335;SDS011;6737;51.480;11.962;2022-08-11T06:09:59;4.93;;;2.63;;
13335;SDS011;6737;51.480;11.962;2022-08-11T06:12:15;6.22;;;2.80;;
13335;SDS011;6737;51.480;11.962;2022-08-11T06:14:44;5.70;;;2.38;;
13335;SDS011;6737;51.480;11.962;2022-08-11T06:17:13;10.02;;;2.40;;
13335;SDS011;6737;51.480;11.962;2022-08-11T06:20:04;7.28;;;2.33;;
13335;SDS011;6737;51.480;11.962;2022-08-11T06:22:36;3.72;;;2.53;;
13335;SDS011;6737;51.480;11.962;2022-08-11T06:25:05;7.85;;;2.58;;
13335;SDS011;6737;51.480;11.962;2022-08-11T06:27:34;6.70;;;2.67;;
13335;SDS011;6737;51.480;11.962;2022-08-11T06:30:02;4.40;;;2.42;;
13335;SDS011;6737;51.480;11.962;2022-08-11T06:32:51;6.75;;;2.60;;
13335;SDS011;6737;51.480;11.962;2022-08-11T06:35:22;6.03;;;2.40;;
13335;SDS011;6737;51.480;11.962;2022-08-11T06:38:07;5.50;;;2.38;;
13335;SDS011;6737;51.480;11.962;2022-08-11T06:43:20;5.00;;;2.50;;
13335;SDS011;6737;51.480;11.962;2022-08-11T06:45:58;5.70;;;2.40;;
13335;SDS011;6737;51.480;11.962;2022-08-11T06:48:32;8.95;;;2.35;;
13335;SDS011;6737;51.480;11.962;2022-08-11T06:51:01;5.13;;;2.40;;
13335;SDS011;6737;51.480;11.962;2022-08-11T06:53:39;6.60;;;2.60;;
13335;SDS011;6737;51.480;11.962;2022-08-11T06:56:09;7.03;;;2.60;;
13335;SDS011;6737;51.480;11.962;2022-08-11T06:58:57;7.82;;;2.60;;
13335;SDS011;6737;51.480;11.962;2022-08-11T07:04:51;5.55;;;2.53;;
13335;SDS011;6737;51.480;11.962;2022-08-11T07:13:31;10.35;;;3.00;;
13335;SDS011;6737;51.480;11.962;2022-08-11T07:16:20;10.05;;;3.00;;
13335;SDS011;6737;51.480;11.962;2022-08-11T07:19:04;5.82;;;2.70;;
13335;SDS011;6737;51.480;11.962;2022-08-11T07:21:50;7.90;;;2.80;;
13335;SDS011;6737;51.480;11.962;2022-08-11T07:27:22;6.90;;;2.97;;
13335;SDS011;6737;51.480;11.962;2022-08-11T07:30:11;8.13;;;2.67;;
13335;SDS011;6737;51.480;11.962;2022-08-11T07:32:40;9.05;;;3.08;;
13335;SDS011;6737;51.480;11.962;2022-08-11T07:35:15;8.52;;;2.97;;
13335;SDS011;6737;51.480;11.962;2022-08-11T07:37:47;8.90;;;3.03;;
13335;SDS011;6737;51.480;11.962;2022-08-11T07:40:21;9.20;;;3.03;;
13335;SDS011;6737;51.480;11.962;2022-08-11T07:42:48;8.85;;;3.28;;
13335;SDS011;6737;51.480;11.962;2022-08-11T07:45:16;8.23;;;3.00;;
13335;SDS011;6737;51.480;11.962;2022-08-11T07:48:01;10.75;;;2.92;;
13335;SDS011;6737;51.480;11.962;2022-08-11T07:50:47;6.05;;;2.92;;
13335;SDS011;6737;51.480;11.962;2022-08-11T07:53:32;8.02;;;3.47;;
13335;SDS011;6737;51.480;11.962;2022-08-11T07:56:02;8.57;;;3.05;;
13335;SDS011;6737;51.480;11.962;2022-08-11T07:58:33;9.07;;;2.80;;
13335;SDS011;6737;51.480;11.962;2022-08-11T08:01:23;6.53;;;2.85;;
13335;SDS011;6737;51.480;11.962;2022-08-11T08:04:10;8.32;;;3.10;;
13335;SDS011;6737;51.480;11.962;2022-08-11T08:06:56;8.80;;;3.50;;
13335;SDS011;6737;51.480;11.962;2022-08-11T08:09:42;5.90;;;3.00;;
13335;SDS011;6737;51.480;11.962;2022-08-11T08:12:27;13.38;;;3.42;;
13335;SDS011;6737;51.480;11.962;2022-08-11T08:15:13;7.15;;;3.10;;
13335;SDS011;6737;51.480;11.962;2022-08-11T08:18:00;5.38;;;2.80;;
13335;SDS011;6737;51.480;11.962;2022-08-11T08:20:32;6.18;;;3.15;;
13335;SDS011;6737;51.480;11.962;2022-08-11T08:23:03;8.93;;;3.25;;
13335;SDS011;6737;51.480;11.962;2022-08-11T08:25:31;11.05;;;3.20;;
13335;SDS011;6737;51.480;11.962;2022-08-11T08:27:59;8.93;;;2.78;;
13335;SDS011;6737;51.480;11.962;2022-08-11T08:30:29;6.03;;;3.10;;
13335;SDS011;6737;51.480;11.962;2022-08-11T08:33:35;8.43;;;2.90;;
13335;SDS011;6737;51.480;11.962;2022-08-11T08:36:02;6.82;;;3.20;;
13335;SDS011;6737;51.480;11.962;2022-08-11T08:38:37;9.02;;;2.95;;
13335;SDS011;6737;51.480;11.962;2022-08-11T08:41:11;8.27;;;2.75;;
13335;SDS011;6737;51.480;11.962;2022-08-11T08:43:39;7.28;;;2.70;;
13335;SDS011;6737;51.480;11.962;2022-08-11T08:46:08;6.68;;;2.65;;
13335;SDS011;6737;51.480;11.962;2022-08-11T08:48:36;8.95;;;3.00;;
13335;SDS011;6737;51.480;11.962;2022-08-11T08:51:04;7.20;;;3.17;;
13335;SDS011;6737;51.480;11.962;2022-08-11T08:53:55;6.88;;;2.90;;
13335;SDS011;6737;51.480;11.962;2022-08-11T08:56:45;7.05;;;2.50;;
13335;SDS011;6737;51.480;11.962;2022-08-11T08:59:13;11.35;;;2.55;;
13335;SDS011;6737;51.480;11.962;2022-08-11T09:01:49;6.25;;;2.58;;
13335;SDS011;6737;51.480;11.962;2022-08-11T09:04:19;5.30;;;2.65;;
13335;SDS011;6737;51.480;11.962;2022-08-11T09:06:46;6.57;;;2.88;;
13335;SDS011;6737;51.480;11.962;2022-08-11T09:09:14;7.13;;;2.53;;
13335;SDS011;6737;51.480;11.962;2022-08-11T09:11:42;5.05;;;2.58;;
13335;SDS011;6737;51.480;11.962;2022-08-11T09:14:15;4.18;;;2.50;;
13335;SDS011;6737;51.480;11.962;2022-08-11T09:16:42;7.03;;;2.53;;
13335;SDS011;6737;51.480;11.962;2022-08-11T09:19:09;4.78;;;2.40;;
13335;SDS011;6737;51.480;11.962;2022-08-11T09:21:50;4.57;;;2.50;;
13335;SDS011;6737;51.480;11.962;2022-08-11T09:24:39;5.05;;;2.45;;
13335;SDS011;6737;51.480;11.962;2022-08-11T09:27:31;8.27;;;2.63;;
13335;SDS011;6737;51.480;11.962;2022-08-11T09:29:58;5.60;;;2.45;;
13335;SDS011;6737;51.480;11.962;2022-08-11T09:32:24;4.85;;;2.55;;
13335;SDS011;6737;51.480;11.962;2022-08-11T09:34:52;7.60;;;2.55;;
13335;SDS011;6737;51.480;11.962;2022-08-11T09:37:19;5.13;;;2.70;;
13335;SDS011;6737;51.480;11.962;2022-08-11T09:40:06;4.57;;;2.10;;
13335;SDS011;6737;51.480;11.962;2022-08-11T09:42:51;4.43;;;2.67;;
13335;SDS011;6737;51.480;11.962;2022-08-11T09:45:36;5.88;;;2.50;;
13335;SDS011;6737;51.480;11.962;2022-08-11T09:48:03;4.28;;;2.17;;
13335;SDS011;6737;51.480;11.962;2022-08-11T09:50:33;3.92;;;2.35;;
13335;SDS011;6737;51.480;11.962;2022-08-11T09:52:59;2.92;;;2.17;;
13335;SDS011;6737;51.480;11.962;2022-08-11T09:55:30;3.05;;;1.95;;
13335;SDS011;6737;51.480;11.962;2022-08-11T09:57:57;3.25;;;2.20;;
13335;SDS011;6737;51.480;11.962;2022-08-11T10:00:38;5.47;;;2.10;;
13335;SDS011;6737;51.480;11.962;2022-08-11T10:03:21;4.97;;;2.30;;
13335;SDS011;6737;51.480;11.962;2022-08-11T10:05:55;3.72;;;2.10;;
13335;SDS011;6737;51.480;11.962;2022-08-11T10:08:42;3.22;;;2.08;;
13335;SDS011;6737;51.480;11.962;2022-08-11T10:11:13;3.70;;;2.60;;
13335;SDS011;6737;51.480;11.962;2022-08-11T10:13:43;6.70;;;2.30;;
13335;SDS011;6737;51.480;11.962;2022-08-11T10:16:30;7.78;;;2.50;;
13335;SDS011;6737;51.480;11.962;2022-08-11T10:19:01;5.63;;;2.30;;
13335;SDS011;6737;51.480;11.962;2022-08-11T10:21:42;7.57;;;2.20;;
13335;SDS011;6737;51.480;11.962;2022-08-11T10:27:38;7.05;;;2.53;;
13335;SDS011;6737;51.480;11.962;2022-08-11T10:30:07;5.72;;;2.50;;
13335;SDS011;6737;51.480;11.962;2022-08-11T10:32:53;12.05;;;2.28;;
13335;SDS011;6737;51.480;11.962;2022-08-11T10:35:40;6.97;;;2.20;;
13335;SDS011;6737;51.480;11.962;2022-08-11T10:38:16;6.07;;;2.42;;
13335;SDS011;6737;51.480;11.962;2022-08-11T10:40:44;7.13;;;2.50;;
13335;SDS011;6737;51.480;11.962;2022-08-11T10:43:31;7.30;;;2.47;;
13335;SDS011;6737;51.480;11.962;2022-08-11T10:45:58;6.75;;;2.35;;
13335;SDS011;6737;51.480;11.962;2022-08-11T10:48:43;2.70;;;2.15;;
13335;SDS011;6737;51.480;11.962;2022-08-11T10:51:10;4.30;;;2.40;;
13335;SDS011;6737;51.480;11.962;2022-08-11T10:53:43;5.28;;;2.20;;
13335;SDS011;6737;51.480;11.962;2022-08-11T10:56:30;8.63;;;2.58;;
13335;SDS011;6737;51.480;11.962;2022-08-11T10:59:20;3.80;;;2.35;;
13335;SDS011;6737;51.480;11.962;2022-08-11T11:01:48;5.35;;;2.70;;
13335;SDS011;6737;51.480;11.962;2022-08-11T11:04:17;4.30;;;2.53;;
13335;SDS011;6737;51.480;11.962;2022-08-11T11:06:49;4.53;;;2.05;;
13335;SDS011;6737;51.480;11.962;2022-08-11T11:09:20;4.05;;;2.28;;
13335;SDS011;6737;51.480;11.962;2022-08-11T11:12:03;10.80;;;2.70;;
13335;SDS011;6737;51.480;11.962;2022-08-11T11:14:56;6.50;;;2.10;;
13335;SDS011;6737;51.480;11.962;2022-08-11T11:17:50;6.65;;;2.33;;
13335;SDS011;6737;51.480;11.962;2022-08-11T11:23:02;4.43;;;2.20;;
13335;SDS011;6737;51.480;11.962;2022-08-11T11:26:28;6.40;;;2.50;;
13335;SDS011;6737;51.480;11.962;2022-08-11T11:31:25;5.07;;;2.40;;
13335;SDS011;6737;51.480;11.962;2022-08-11T11:36:35;7.43;;;2.40;;
13335;SDS011;6737;51.480;11.962;2022-08-11T11:39:14;4.18;;;2.22;;
13335;SDS011;6737;51.480;11.962;2022-08-11T11:41:42;8.73;;;2.20;;
13335;SDS011;6737;51.480;11.962;2022-08-11T11:44:10;5.75;;;2.20;;
13335;SDS011;6737;51.480;11.962;2022-08-11T11:46:38;3.10;;;2.30;;
13335;SDS011;6737;51.480;11.962;2022-08-11T11:49:05;2.63;;;2.20;;
13335;SDS011;6737;51.480;11.962;2022-08-11T11:51:35;4.05;;;2.30;;
13335;SDS011;6737;51.480;11.962;2022-08-11T11:54:01;4.65;;;2.50;;
13335;SDS011;6737;51.480;11.962;2022-08-11T11:56:29;3.97;;;2.17;;
13335;SDS011;6737;51.480;11.962;2022-08-11T11:58:56;3.38;;;2.20;;
13335;SDS011;6737;51.480;11.962;2022-08-11T12:01:41;2.65;;;2.20;;
13335;SDS011;6737;51.480;11.962;2022-08-11T12:04:08;4.22;;;2.17;;
13335;SDS011;6737;51.480;11.962;2022-08-11T12:06:36;4.75;;;2.25;;
13335;SDS011;6737;51.480;11.962;2022-08-11T12:09:02;5.32;;;2.17;;
13335;SDS011;6737;51.480;11.962;2022-08-11T12:11:29;4.72;;;2.22;;
13335;SDS011;6737;51.480;11.962;2022-08-11T12:14:16;5.28;;;2.20;;
13335;SDS011;6737;51.480;11.962;2022-08-11T12:16:44;4.03;;;2.17;;
13335;SDS011;6737;51.480;11.962;2022-08-11T12:19:12;4.97;;;2.15;;
13335;SDS011;6737;51.480;11.962;2022-08-11T12:21:40;3.90;;;2.45;;
13335;SDS011;6737;51.480;11.962;2022-08-11T12:24:27;5.15;;;2.30;;
13335;SDS011;6737;51.480;11.962;2022-08-11T12:27:15;3.50;;;2.15;;
13335;SDS011;6737;51.480;11.962;2022-08-11T12:29:55;3.85;;;2.10;;
13335;SDS011;6737;51.480;11.962;2022-08-11T12:32:25;4.97;;;2.40;;
13335;SDS011;6737;51.480;11.962;2022-08-11T12:34:55;3.78;;;2.13;;
13335;SDS011;6737;51.480;11.962;2022-08-11T12:37:23;7.75;;;2.20;;
13335;SDS011;6737;51.480;11.962;2022-08-11T12:39:57;3.65;;;2.22;;
13335;SDS011;6737;51.480;11.962;2022-08-11T12:42:44;8.18;;;2.50;;
13335;SDS011;6737;51.480;11.962;2022-08-11T12:45:30;3.30;;;2.30;;
13335;SDS011;6737;51.480;11.962;2022-08-11T12:48:05;4.07;;;2.30;;
13335;SDS011;6737;51.480;11.962;2022-08-11T12:51:00;7.85;;;2.50;;
13335;SDS011;6737;51.480;11.962;2022-08-11T12:54:08;5.28;;;2.33;;
13335;SDS011;6737;51.480;11.962;2022-08-11T12:56:42;4.43;;;2.17;;
13335;SDS011;6737;51.480;11.962;2022-08-11T12:59:34;3.42;;;2.20;;
13335;SDS011;6737;51.480;11.962;2022-08-11T13:02:20;2.33;;;2.05;;
13335;SDS011;6737;51.480;11.962;2022-08-11T13:05:07;6.60;;;2.40;;
13335;SDS011;6737;51.480;11.962;2022-08-11T13:07:37;3.03;;;2.05;;
13335;SDS011;6737;51.480;11.962;2022-08-11T13:10:09;5.72;;;2.10;;
13335;SDS011;6737;51.480;11.962;2022-08-11T13:12:37;6.18;;;2.55;;
13335;SDS011;6737;51.480;11.962;2022-08-11T13:15:22;6.72;;;2.42;;
13335;SDS011;6737;51.480;11.962;2022-08-11T13:17:50;4.45;;;2.17;;
13335;SDS011;6737;51.480;11.962;2022-08-11T13:20:20;3.08;;;2.13;;
13335;SDS011;6737;51.480;11.962;2022-08-11T13:22:48;5.95;;;2.58;;
13335;SDS011;6737;51.480;11.962;2022-08-11T13:25:22;3.58;;;2.15;;
13335;SDS011;6737;51.480;11.962;2022-08-11T13:27:52;8.00;;;2.50;;
13335;SDS011;6737;51.480;11.962;2022-08-11T13:30:21;3.53;;;2.10;;
13335;SDS011;6737;51.480;11.962;2022-08-11T13:33:11;5.15;;;2.38;;
13335;SDS011;6737;51.480;11.962;2022-08-11T13:35:40;8.55;;;2.30;;
13335;SDS011;6737;51.480;11.962;2022-08-11T13:38:07;6.40;;;2.53;;
13335;SDS011;6737;51.480;11.962;2022-08-11T13:40:37;10.00;;;2.70;;
13335;SDS011;6737;51.480;11.962;2022-08-11T13:43:04;7.53;;;2.00;;
13335;SDS011;6737;51.480;11.962;2022-08-11T13:45:31;8.25;;;2.40;;
13335;SDS011;6737;51.480;11.962;2022-08-11T13:47:59;3.10;;;2.30;;
13335;SDS011;6737;51.480;11.962;2022-08-11T13:50:27;3.58;;;1.95;;
13335;SDS011;6737;51.480;11.962;2022-08-11T13:53:15;7.80;;;2.28;;
13335;SDS011;6737;51.480;11.962;2022-08-11T13:55:42;2.78;;;2.30;;
13335;SDS011;6737;51.480;11.962;2022-08-11T13:58:09;4.65;;;2.35;;
13335;SDS011;6737;51.480;11.962;2022-08-11T14:00:37;3.65;;;2.10;;
13335;SDS011;6737;51.480;11.962;2022-08-11T14:03:08;7.10;;;2.20;;
13335;SDS011;6737;51.480;11.962;2022-08-11T14:05:38;2.53;;;2.20;;
13335;SDS011;6737;51.480;11.962;2022-08-11T14:08:08;5.07;;;2.40;;
13335;SDS011;6737;51.480;11.962;2022-08-11T14:10:37;8.35;;;2.10;;
13335;SDS011;6737;51.480;11.962;2022-08-11T14:13:08;4.55;;;2.13;;
13335;SDS011;6737;51.480;11.962;2022-08-11T14:15:57;6.88;;;2.22;;
13335;SDS011;6737;51.480;11.962;2022-08-11T14:18:29;5.18;;;2.28;;
13335;SDS011;6737;51.480;11.962;2022-08-11T14:21:00;3.55;;;2.10;;
13335;SDS011;6737;51.480;11.962;2022-08-11T14:23:50;9.77;;;2.33;;
13335;SDS011;6737;51.480;11.962;2022-08-11T14:26:19;7.13;;;2.63;;
13335;SDS011;6737;51.480;11.962;2022-08-11T14:31:22;8.10;;;2.40;;
13335;SDS011;6737;51.480;11.962;2022-08-11T14:33:49;4.97;;;2.28;;
13335;SDS011;6737;51.480;11.962;2022-08-11T14:36:24;5.05;;;2.28;;
13335;SDS011;6737;51.480;11.962;2022-08-11T14:38:52;5.97;;;2.20;;
13335;SDS011;6737;51.480;11.962;2022-08-11T14:41:19;4.28;;;2.13;;
13335;SDS011;6737;51.480;11.962;2022-08-11T14:44:06;9.02;;;2.20;;
13335;SDS011;6737;51.480;11.962;2022-08-11T14:46:52;5.72;;;2.40;;
13335;SDS011;6737;51.480;11.962;2022-08-11T14:49:35;6.80;;;2.20;;
13335;SDS011;6737;51.480;11.962;2022-08-11T14:52:23;2.55;;;1.83;;
13335;SDS011;6737;51.480;11.962;2022-08-11T14:54:50;3.83;;;1.88;;
13335;SDS011;6737;51.480;11.962;2022-08-11T14:57:37;2.38;;;2.10;;
13335;SDS011;6737;51.480;11.962;2022-08-11T15:00:08;4.32;;;2.20;;
13335;SDS011;6737;51.480;11.962;2022-08-11T15:02:39;3.50;;;2.00;;
13335;SDS011;6737;51.480;11.962;2022-08-11T15:05:29;3.33;;;2.05;;
13335;SDS011;6737;51.480;11.962;2022-08-11T15:07:56;6.45;;;2.40;;
13335;SDS011;6737;51.480;11.962;2022-08-11T15:10:23;3.45;;;2.20;;
13335;SDS011;6737;51.480;11.962;2022-08-11T15:12:50;3.90;;;1.85;;
13335;SDS011;6737;51.480;11.962;2022-08-11T15:15:17;3.58;;;2.10;;
13335;SDS011;6737;51.480;11.962;2022-08-11T15:18:04;3.00;;;2.20;;
13335;SDS011;6737;51.480;11.962;2022-08-11T15:20:32;3.15;;;2.13;;
13335;SDS011;6737;51.480;11.962;2022-08-11T15:23:16;8.02;;;2.20;;
13335;SDS011;6737;51.480;11.962;2022-08-11T15:26:06;2.40;;;2.20;;
13335;SDS011;6737;51.480;11.962;2022-08-11T15:28:36;4.82;;;2.00;;
13335;SDS011;6737;51.480;11.962;2022-08-11T15:31:27;5.75;;;2.33;;
13335;SDS011;6737;51.480;11.962;2022-08-11T15:34:01;3.75;;;2.03;;
13335;SDS011;6737;51.480;11.962;2022-08-11T15:36:47;3.05;;;2.20;;
13335;SDS011;6737;51.480;11.962;2022-08-11T15:39:35;4.30;;;2.08;;
13335;SDS011;6737;51.480;11.962;2022-08-11T15:42:08;5.25;;;2.30;;
13335;SDS011;6737;51.480;11.962;2022-08-11T15:44:58;5.32;;;2.20;;
13335;SDS011;6737;51.480;11.962;2022-08-11T15:47:48;4.68;;;2.05;;
13335;SDS011;6737;51.480;11.962;2022-08-11T15:50:21;3.88;;;2.17;;
13335;SDS011;6737;51.480;11.962;2022-08-11T15:52:59;6.50;;;2.22;;
13335;SDS011;6737;51.480;11.962;2022-08-11T15:55:30;3.63;;;2.60;;
13335;SDS011;6737;51.480;11.962;2022-08-11T15:58:00;3.67;;;2.20;;
13335;SDS011;6737;51.480;11.962;2022-08-11T16:00:47;2.50;;;2.10;;
13335;SDS011;6737;51.480;11.962;2022-08-11T16:03:53;4.50;;;2.30;;
13335;SDS011;6737;51.480;11.962;2022-08-11T16:06:47;5.03;;;1.90;;
13335;SDS011;6737;51.480;11.962;2022-08-11T16:09:18;3.05;;;2.13;;
13335;SDS011;6737;51.480;11.962;2022-08-11T16:11:50;3.22;;;2.30;;
13335;SDS011;6737;51.480;11.962;2022-08-11T16:14:18;8.95;;;2.25;;
13335;SDS011;6737;51.480;11.962;2022-08-11T16:17:04;3.72;;;2.00;;
13335;SDS011;6737;51.480;11.962;2022-08-11T16:19:34;4.15;;;2.30;;
13335;SDS011;6737;51.480;11.962;2022-08-11T16:22:03;5.43;;;2.33;;
13335;SDS011;6737;51.480;11.962;2022-08-11T16:24:37;4.15;;;2.10;;
13335;SDS011;6737;51.480;11.962;2022-08-11T16:27:09;4.30;;;2.13;;
13335;SDS011;6737;51.480;11.962;2022-08-11T16:29:37;3.05;;;2.10;;
13335;SDS011;6737;51.480;11.962;2022-08-11T16:32:10;3.22;;;2.22;;
13335;SDS011;6737;51.480;11.962;2022-08-11T16:34:44;3.33;;;1.98;;
13335;SDS011;6737;51.480;11.962;2022-08-11T16:37:43;5.07;;;2.58;;
13335;SDS011;6737;51.480;11.962;2022-08-11T16:40:28;3.20;;;2.25;;
13335;SDS011;6737;51.480;11.962;2022-08-11T16:42:56;3.40;;;2.30;;
13335;SDS011;6737;51.480;11.962;2022-08-11T16:45:42;4.13;;;2.03;;
13335;SDS011;6737;51.480;11.962;2022-08-11T16:48:33;2.78;;;2.08;;
13335;SDS011;6737;51.480;11.962;2022-08-11T16:51:01;8.15;;;2.47;;
13335;SDS011;6737;51.480;11.962;2022-08-11T16:53:28;3.75;;;2.10;;
13335;SDS011;6737;51.480;11.962;2022-08-11T16:55:55;3.92;;;2.25;;
13335;SDS011;6737;51.480;11.962;2022-08-11T16:58:27;4.68;;;2.20;;
13335;SDS011;6737;51.480;11.962;2022-08-11T17:01:14;8.35;;;2.35;;
13335;SDS011;6737;51.480;11.962;2022-08-11T17:03:45;4.38;;;2.28;;
13335;SDS011;6737;51.480;11.962;2022-08-11T17:06:35;2.88;;;2.13;;
13335;SDS011;6737;51.480;11.962;2022-08-11T17:09:24;6.63;;;2.72;;
13335;SDS011;6737;51.480;11.962;2022-08-11T17:12:17;3.60;;;2.50;;
13335;SDS011;6737;51.480;11.962;2022-08-11T17:15:05;8.25;;;2.60;;
13335;SDS011;6737;51.480;11.962;2022-08-11T17:17:57;5.28;;;2.20;;
13335;SDS011;6737;51.480;11.962;2022-08-11T17:20:27;7.00;;;2.47;;
13335;SDS011;6737;51.480;11.962;2022-08-11T17:22:55;4.72;;;2.40;;
13335;SDS011;6737;51.480;11.962;2022-08-11T17:25:40;5.07;;;2.75;;
13335;SDS011;6737;51.480;11.962;2022-08-11T17:28:07;4.10;;;2.30;;
13335;SDS011;6737;51.480;11.962;2022-08-11T17:30:36;6.18;;;2.25;;
13335;SDS011;6737;51.480;11.962;2022-08-11T17:33:27;6.05;;;2.42;;
13335;SDS011;6737;51.480;11.962;2022-08-11T17:36:13;9.05;;;4.32;;
13335;SDS011;6737;51.480;11.962;2022-08-11T17:38:42;7.55;;;5.13;;
13335;SDS011;6737;51.480;11.962;2022-08-11T17:41:10;8.00;;;6.95;;
13335;SDS011;6737;51.480;11.962;2022-08-11T17:43:56;3.78;;;3.30;;
13335;SDS011;6737;51.480;11.962;2022-08-11T17:46:42;6.38;;;3.25;;
13335;SDS011;6737;51.480;11.962;2022-08-11T17:49:28;7.60;;;3.83;;
13335;SDS011;6737;51.480;11.962;2022-08-11T17:52:02;4.70;;;2.80;;
13335;SDS011;6737;51.480;11.962;2022-08-11T17:54:51;3.55;;;2.80;;
13335;SDS011;6737;51.480;11.962;2022-08-11T17:57:40;9.20;;;5.28;;
13335;SDS011;6737;51.480;11.962;2022-08-11T18:00:25;5.57;;;3.05;;
13335;SDS011;6737;51.480;11.962;2022-08-11T18:02:51;19.52;;;12.13;;
13335;SDS011;6737;51.480;11.962;2022-08-11T18:05:38;11.95;;;9.40;;
13335;SDS011;6737;51.480;11.962;2022-08-11T18:08:08;9.25;;;6.75;;
13335;SDS011;6737;51.480;11.962;2022-08-11T18:10:56;7.68;;;4.80;;
13335;SDS011;6737;51.480;11.962;2022-08-11T18:13:42;3.88;;;3.25;;
13335;SDS011;6737;51.480;11.962;2022-08-11T18:16:27;6.97;;;4.13;;
13335;SDS011;6737;51.480;11.962;2022-08-11T18:19:12;3.30;;;2.42;;
13335;SDS011;6737;51.480;11.962;2022-08-11T18:21:59;2.55;;;2.20;;
13335;SDS011;6737;51.480;11.962;2022-08-11T18:24:50;6.40;;;2.28;;
13335;SDS011;6737;51.480;11.962;2022-08-11T18:27:48;6.60;;;2.25;;
13335;SDS011;6737;51.480;11.962;2022-08-11T18:30:38;5.40;;;2.50;;
13335;SDS011;6737;51.480;11.962;2022-08-11T18:33:25;3.78;;;2.53;;
13335;SDS011;6737;51.480;11.962;2022-08-11T18:36:16;4.22;;;1.90;;
13335;SDS011;6737;51.480;11.962;2022-08-11T18:39:07;3.42;;;2.30;;
13335;SDS011;6737;51.480;11.962;2022-08-11T18:41:57;4.97;;;2.22;;
13335;SDS011;6737;51.480;11.962;2022-08-11T18:44:43;4.60;;;2.13;;
13335;SDS011;6737;51.480;11.962;2022-08-11T18:47:30;3.92;;;2.28;;
13335;SDS011;6737;51.480;11.962;2022-08-11T18:50:15;5.70;;;2.40;;
13335;SDS011;6737;51.480;11.962;2022-08-11T18:53:02;5.20;;;2.45;;
13335;SDS011;6737;51.480;11.962;2022-08-11T18:55:49;4.22;;;2.30;;
13335;SDS011;6737;51.480;11.962;2022-08-11T18:58:35;3.22;;;2.50;;
13335;SDS011;6737;51.480;11.962;2022-08-11T19:01:21;4.25;;;2.40;;
13335;SDS011;6737;51.480;11.962;2022-08-11T19:04:06;4.13;;;2.38;;
13335;SDS011;6737;51.480;11.962;2022-08-11T19:06:53;4.75;;;2.25;;
13335;SDS011;6737;51.480;11.962;2022-08-11T19:09:41;7.63;;;2.30;;
13335;SDS011;6737;51.480;11.962;2022-08-11T19:12:32;3.88;;;2.28;;
13335;SDS011;6737;51.480;11.962;2022-08-11T19:15:21;5.03;;;2.17;;
13335;SDS011;6737;51.480;11.962;2022-08-11T19:18:08;3.60;;;2.50;;
13335;SDS011;6737;51.480;11.962;2022-08-11T19:20:56;5.32;;;2.35;;
13335;SDS011;6737;51.480;11.962;2022-08-11T19:23:43;3.33;;;2.22;;
13335;SDS011;6737;51.480;11.962;2022-08-11T19:26:32;9.18;;;2.45;;